You are not logged in, Click here to log in
孔戈尼亞斯/聖保羅機場CGH / SBSP 巴西最大城市聖保羅
ICAO: SBSP Country: 巴西最大城市聖保羅
Latitude: -23.6261 Longitude: -46.6564
Total Arrivals: 8 Total Departures: 7
Latest Arrival: B7O61A (SLLP-SBSP)Jason. Li Latest Departure: JJ3932 (SBSP-SBRJ)Stone. Chang
Scenery:
METAR : SBSP 080200Z 09006KT 050V110 CAVOK 17/13 Q1018

孔戈尼亞斯/聖保羅機場CGH